createdAt,value
2018-06-17T00:00:11.124Z,14.70
2018-06-17T00:02:39.608Z,14.70
2018-06-17T00:07:36.333Z,14.50
2018-06-17T00:10:06.083Z,14.50
2018-06-17T00:12:34.733Z,14.50
2018-06-17T00:15:03.441Z,14.50
2018-06-17T00:17:31.956Z,14.50
2018-06-17T00:20:00.500Z,14.50
2018-06-17T00:22:28.960Z,14.40
2018-06-17T00:24:57.397Z,14.40
2018-06-17T00:27:32.170Z,14.30
2018-06-17T00:30:00.589Z,14.30
2018-06-17T00:32:29.227Z,14.30
2018-06-17T00:34:57.721Z,14.20
2018-06-17T00:37:26.201Z,14.20
2018-06-17T00:39:54.922Z,14.20
2018-06-17T00:42:23.387Z,14.20
2018-06-17T00:44:51.867Z,14.20
2018-06-17T00:47:20.388Z,14.10
2018-06-17T00:49:48.771Z,14.10
2018-06-17T00:52:17.332Z,14.10
2018-06-17T00:54:46.089Z,14.10
2018-06-17T00:57:25.808Z,14.10
2018-06-17T00:59:54.428Z,14.20
2018-06-17T01:04:51.491Z,14.10
2018-06-17T01:07:19.998Z,14.10
2018-06-17T01:09:48.535Z,14.10
2018-06-17T01:12:17.516Z,14.10
2018-06-17T01:14:45.996Z,14.00
2018-06-17T01:17:16.474Z,14.00
2018-06-17T01:19:45.011Z,14.10
2018-06-17T01:22:13.560Z,14.00
2018-06-17T01:24:41.996Z,14.00
2018-06-17T01:27:10.497Z,14.00
2018-06-17T01:29:39.120Z,13.90
2018-06-17T01:32:07.706Z,13.80
2018-06-17T01:34:36.134Z,13.90
2018-06-17T01:37:04.612Z,13.90
2018-06-17T01:39:33.868Z,13.90
2018-06-17T01:42:02.376Z,13.90
2018-06-17T01:46:59.014Z,13.80
2018-06-17T01:49:27.424Z,13.70
2018-06-17T01:51:55.961Z,13.70
2018-06-17T01:54:24.636Z,13.70
2018-06-17T01:56:53.454Z,13.60
2018-06-17T01:59:22.135Z,13.60
2018-06-17T02:01:51.020Z,13.60
2018-06-17T02:08:01.360Z,13.50
2018-06-17T02:10:35.004Z,13.50
2018-06-17T02:15:31.615Z,13.60
2018-06-17T02:18:00.090Z,13.50
2018-06-17T02:20:28.613Z,13.40
2018-06-17T02:22:57.196Z,13.40
2018-06-17T02:25:25.686Z,13.40
2018-06-17T02:27:54.148Z,13.30
2018-06-17T02:30:22.620Z,13.40
2018-06-17T02:32:51.107Z,13.30
2018-06-17T02:35:19.556Z,13.40
2018-06-17T02:37:48.117Z,13.40
2018-06-17T02:40:16.620Z,13.30
2018-06-17T02:42:45.445Z,13.30
2018-06-17T02:45:19.265Z,13.30
2018-06-17T02:47:53.047Z,13.30
2018-06-17T02:50:27.092Z,13.30
2018-06-17T02:53:00.853Z,13.30
2018-06-17T02:55:29.322Z,13.30
2018-06-17T02:57:57.760Z,13.30
2018-06-17T03:00:26.331Z,13.30
2018-06-17T03:02:56.392Z,13.20
2018-06-17T03:05:25.100Z,13.30
2018-06-17T03:07:53.537Z,13.30
2018-06-17T03:10:21.993Z,13.30
2018-06-17T03:12:50.432Z,13.30
2018-06-17T03:15:18.883Z,13.30
2018-06-17T03:17:47.296Z,13.30
2018-06-17T03:20:15.740Z,13.30
2018-06-17T03:22:44.172Z,13.30
2018-06-17T03:25:17.982Z,13.30
2018-06-17T03:27:52.076Z,13.30
2018-06-17T03:30:26.008Z,13.30
2018-06-17T03:32:59.944Z,13.30
2018-06-17T03:35:33.552Z,13.30
2018-06-17T03:38:01.991Z,13.30
2018-06-17T03:40:30.458Z,13.30
2018-06-17T03:42:58.990Z,13.30
2018-06-17T03:45:27.757Z,13.40
2018-06-17T03:47:56.231Z,13.40
2018-06-17T03:50:25.564Z,13.40
2018-06-17T03:52:54.053Z,13.40
2018-06-17T03:55:22.476Z,13.40
2018-06-17T03:57:50.923Z,13.40
2018-06-17T04:00:19.472Z,13.40
2018-06-17T04:02:47.979Z,13.50
2018-06-17T04:05:21.792Z,13.50
2018-06-17T04:07:50.241Z,13.50
2018-06-17T04:10:18.750Z,13.60
2018-06-17T04:12:47.197Z,13.60
2018-06-17T04:15:15.679Z,13.60
2018-06-17T04:17:44.124Z,13.70
2018-06-17T04:20:12.561Z,13.70
2018-06-17T04:22:41.117Z,13.80
2018-06-17T04:25:09.968Z,13.80
2018-06-17T04:27:38.462Z,14.00
2018-06-17T04:30:06.915Z,14.20
2018-06-17T04:32:35.324Z,14.40
2018-06-17T04:35:03.823Z,15.00
2018-06-17T04:37:32.458Z,15.30
2018-06-17T04:40:01.053Z,15.30
2018-06-17T04:42:29.488Z,15.10
2018-06-17T04:44:58.027Z,15.10
2018-06-17T04:47:26.643Z,14.90
2018-06-17T04:49:55.075Z,14.80
2018-06-17T04:52:23.507Z,14.80
2018-06-17T04:54:51.941Z,14.80
2018-06-17T04:59:48.762Z,15.20
2018-06-17T05:02:17.411Z,15.30
2018-06-17T05:04:45.831Z,15.40
2018-06-17T05:07:14.317Z,15.60
2018-06-17T05:09:44.445Z,15.60
2018-06-17T05:12:12.909Z,15.60
2018-06-17T05:14:41.309Z,15.60
2018-06-17T05:17:09.837Z,15.60
2018-06-17T05:19:38.227Z,15.70
2018-06-17T05:22:06.729Z,15.60
2018-06-17T05:24:35.207Z,15.50
2018-06-17T05:27:03.655Z,15.50
2018-06-17T05:29:32.223Z,15.50
2018-06-17T05:32:00.688Z,15.60
2018-06-17T05:34:29.222Z,15.60
2018-06-17T05:36:58.184Z,15.70
2018-06-17T05:39:26.650Z,15.70
2018-06-17T05:41:55.110Z,15.80
2018-06-17T05:44:23.595Z,15.80
2018-06-17T05:46:52.927Z,16.00
2018-06-17T05:49:21.391Z,16.30
2018-06-17T05:51:49.897Z,16.40
2018-06-17T05:54:18.436Z,16.30
2018-06-17T05:56:46.864Z,16.30
2018-06-17T05:59:15.593Z,16.20
2018-06-17T06:01:44.055Z,16.00
2018-06-17T06:04:12.800Z,16.10
2018-06-17T06:06:41.250Z,16.10
2018-06-17T06:09:11.025Z,16.20
2018-06-17T06:11:39.825Z,16.30
2018-06-17T06:14:08.324Z,16.40
2018-06-17T06:16:36.786Z,16.50
2018-06-17T06:19:05.296Z,16.50
2018-06-17T06:21:34.361Z,16.60
2018-06-17T06:24:03.429Z,16.70
2018-06-17T06:26:32.029Z,16.90
2018-06-17T06:29:00.699Z,17.20
2018-06-17T06:31:29.304Z,17.40
2018-06-17T06:33:57.720Z,17.50
2018-06-17T06:36:26.174Z,18.20
2018-06-17T06:38:54.594Z,18.30
2018-06-17T06:41:23.128Z,18.20
2018-06-17T06:43:51.556Z,18.20
2018-06-17T06:46:20.077Z,18.00
2018-06-17T06:48:48.812Z,17.90
2018-06-17T06:51:17.352Z,17.90
2018-06-17T06:53:46.009Z,18.30
2018-06-17T06:56:14.463Z,18.60
2018-06-17T06:58:42.907Z,18.70
2018-06-17T07:03:50.740Z,19.80
2018-06-17T07:06:30.566Z,20.20
2018-06-17T07:09:10.207Z,20.70
2018-06-17T07:11:38.695Z,21.30
2018-06-17T07:14:07.183Z,21.20
2018-06-17T07:16:46.997Z,21.30
2018-06-17T07:19:15.394Z,20.80
2018-06-17T07:21:43.939Z,20.60
2018-06-17T07:24:12.446Z,21.30
2018-06-17T07:26:56.693Z,21.60
2018-06-17T07:29:38.816Z,21.70
2018-06-17T07:32:07.308Z,21.50
2018-06-17T07:34:35.749Z,21.40
2018-06-17T07:37:04.875Z,21.20
2018-06-17T07:41:42.983Z,21.40
2018-06-17T07:44:11.686Z,21.30
2018-06-17T07:46:41.138Z,22.60
2018-06-17T07:49:30.975Z,22.70
2018-06-17T07:52:11.684Z,22.90
2018-06-17T07:54:41.597Z,22.80
2018-06-17T07:57:11.297Z,22.60
2018-06-17T07:59:40.367Z,22.30
2018-06-17T08:02:09.236Z,22.50
2018-06-17T08:04:38.778Z,22.60
2018-06-17T08:07:07.617Z,22.70
2018-06-17T08:12:04.997Z,23.10
2018-06-17T08:17:01.703Z,23.10
2018-06-17T08:19:30.889Z,22.80
2018-06-17T08:22:00.107Z,22.80
2018-06-17T08:24:28.935Z,22.30
2018-06-17T08:29:25.995Z,21.30
2018-06-17T08:31:54.735Z,21.20
2018-06-17T08:34:23.239Z,21.60
2018-06-17T08:36:51.805Z,22.20
2018-06-17T08:39:21.558Z,22.70
2018-06-17T08:41:50.245Z,22.40
2018-06-17T08:46:48.520Z,22.00
2018-06-17T08:49:17.615Z,21.90
2018-06-17T08:51:46.080Z,22.10
2018-06-17T08:54:14.586Z,22.20
2018-06-17T08:56:43.055Z,21.70
2018-06-17T08:59:11.470Z,21.50
2018-06-17T09:01:39.968Z,21.40
2018-06-17T09:04:08.580Z,21.30
2018-06-17T09:06:37.030Z,21.80
2018-06-17T09:09:12.939Z,22.00
2018-06-17T09:11:41.516Z,21.90
2018-06-17T09:14:09.933Z,22.00
2018-06-17T09:16:38.454Z,22.30
2018-06-17T09:19:06.893Z,22.30
2018-06-17T09:21:35.486Z,22.40
2018-06-17T09:24:04.010Z,22.60
2018-06-17T09:26:32.945Z,24.10
2018-06-17T09:29:01.547Z,23.70
2018-06-17T09:31:30.293Z,23.80
2018-06-17T09:33:58.947Z,23.20
2018-06-17T09:36:27.675Z,23.00
2018-06-17T09:38:56.423Z,23.00
2018-06-17T09:41:24.922Z,22.90
2018-06-17T09:43:53.935Z,22.80
2018-06-17T09:46:22.576Z,23.00
2018-06-17T09:48:51.112Z,23.00
2018-06-17T09:51:19.816Z,22.90
2018-06-17T09:53:48.283Z,23.20
2018-06-17T09:56:16.723Z,23.30
2018-06-17T09:58:45.464Z,23.60
2018-06-17T10:01:13.919Z,23.10
2018-06-17T10:03:42.348Z,23.00
2018-06-17T10:06:10.975Z,22.80
2018-06-17T10:08:39.567Z,22.70
2018-06-17T10:11:08.628Z,22.60
2018-06-17T10:13:45.319Z,22.30
2018-06-17T10:16:15.297Z,22.00
2018-06-17T10:18:45.264Z,21.90
2018-06-17T10:21:13.813Z,22.10
2018-06-17T10:23:42.220Z,22.10
2018-06-17T10:26:10.709Z,22.20
2018-06-17T10:28:39.330Z,22.70
2018-06-17T10:31:08.097Z,22.80
2018-06-17T10:33:37.340Z,23.30
2018-06-17T10:36:06.358Z,23.30
2018-06-17T10:38:35.098Z,23.40
2018-06-17T10:41:03.692Z,23.30
2018-06-17T10:43:33.415Z,22.90
2018-06-17T10:46:01.964Z,22.80
2018-06-17T10:48:30.515Z,23.10
2018-06-17T10:50:59.017Z,23.30
2018-06-17T10:53:27.471Z,23.20
2018-06-17T10:55:55.972Z,22.80
2018-06-17T10:58:24.440Z,22.60
2018-06-17T11:00:52.870Z,23.10
2018-06-17T11:03:21.365Z,23.10
2018-06-17T11:05:49.928Z,22.60
2018-06-17T11:08:18.383Z,23.10
2018-06-17T11:10:46.945Z,23.30
2018-06-17T11:13:15.476Z,23.00
2018-06-17T11:15:43.946Z,23.30
2018-06-17T11:18:12.459Z,23.30
2018-06-17T11:20:40.993Z,22.90
2018-06-17T11:23:09.426Z,22.80
2018-06-17T11:25:38.112Z,22.80
2018-06-17T11:28:06.707Z,22.70
2018-06-17T11:30:35.187Z,22.50
2018-06-17T11:33:03.616Z,22.40
2018-06-17T11:35:32.100Z,22.60
2018-06-17T11:38:00.852Z,22.60
2018-06-17T11:40:29.296Z,22.70
2018-06-17T11:42:57.840Z,22.70
2018-06-17T11:45:26.406Z,22.30
2018-06-17T11:47:55.196Z,21.90
2018-06-17T11:50:23.659Z,21.90
2018-06-17T11:52:52.814Z,22.10
2018-06-17T11:55:21.245Z,21.90
2018-06-17T11:57:49.720Z,21.80
2018-06-17T12:00:18.151Z,21.80
2018-06-17T12:02:47.347Z,21.60
2018-06-17T12:05:15.915Z,21.50
2018-06-17T12:07:44.506Z,21.10
2018-06-17T12:10:13.169Z,20.80
2018-06-17T12:12:42.026Z,20.90
2018-06-17T12:15:10.930Z,20.80
2018-06-17T12:17:39.486Z,21.30
2018-06-17T12:20:07.938Z,21.20
2018-06-17T12:22:36.395Z,21.10
2018-06-17T12:27:33.056Z,21.10
2018-06-17T12:30:01.518Z,21.30
2018-06-17T12:32:29.957Z,21.10
2018-06-17T12:34:58.478Z,21.10
2018-06-17T12:37:26.961Z,20.70
2018-06-17T12:39:55.450Z,20.90
2018-06-17T12:42:24.011Z,20.70
2018-06-17T12:44:52.651Z,20.70
2018-06-17T12:47:21.349Z,20.70
2018-06-17T12:49:50.719Z,20.50
2018-06-17T12:52:19.138Z,20.70
2018-06-17T12:54:47.652Z,20.80
2018-06-17T12:57:16.127Z,20.50
2018-06-17T12:59:44.672Z,20.40
2018-06-17T13:02:13.152Z,20.40
2018-06-17T13:04:41.709Z,20.50
2018-06-17T13:07:10.233Z,20.40
2018-06-17T13:09:38.720Z,20.50
2018-06-17T13:12:07.398Z,20.20
2018-06-17T13:14:35.880Z,20.10
2018-06-17T13:17:04.525Z,20.00
2018-06-17T13:19:32.995Z,20.10
2018-06-17T13:22:01.513Z,20.00
2018-06-17T13:24:30.027Z,20.10
2018-06-17T13:26:59.422Z,20.30
2018-06-17T13:29:27.952Z,20.50
2018-06-17T13:31:56.458Z,20.10
2018-06-17T13:34:25.000Z,20.20
2018-06-17T13:36:53.448Z,20.20
2018-06-17T13:41:50.229Z,20.70
2018-06-17T13:44:18.805Z,21.00
2018-06-17T13:46:47.268Z,21.10
2018-06-17T13:51:44.006Z,21.20
2018-06-17T13:54:12.468Z,21.20
2018-06-17T13:56:40.899Z,21.10
2018-06-17T13:59:09.514Z,21.30
2018-06-17T14:01:37.964Z,21.40
2018-06-17T14:04:06.461Z,21.20
2018-06-17T14:06:34.928Z,21.30
2018-06-17T14:09:04.712Z,21.10
2018-06-17T14:11:33.138Z,20.90
2018-06-17T14:14:02.084Z,21.10
2018-06-17T14:16:30.656Z,21.10
2018-06-17T14:18:59.226Z,21.00
2018-06-17T14:21:28.059Z,20.70
2018-06-17T14:23:56.614Z,20.70
2018-06-17T14:26:25.186Z,20.80
2018-06-17T14:28:53.604Z,20.60
2018-06-17T14:31:22.207Z,20.30
2018-06-17T14:33:50.746Z,20.80
2018-06-17T14:36:19.227Z,20.70
2018-06-17T14:38:47.767Z,20.90
2018-06-17T14:41:19.531Z,20.70
2018-06-17T14:43:53.638Z,20.50
2018-06-17T14:46:27.497Z,20.50
2018-06-17T14:49:01.126Z,20.70
2018-06-17T14:51:34.851Z,20.50
2018-06-17T14:54:03.347Z,20.30
2018-06-17T14:56:31.821Z,20.40
2018-06-17T14:59:00.297Z,20.30
2018-06-17T15:01:28.804Z,20.70
2018-06-17T15:03:58.094Z,20.80
2018-06-17T15:06:26.588Z,20.50
2018-06-17T15:08:55.103Z,20.40
2018-06-17T15:11:24.508Z,20.60
2018-06-17T15:13:52.959Z,20.20
2018-06-17T15:16:21.425Z,19.90
2018-06-17T15:18:49.914Z,19.90
2018-06-17T15:21:18.376Z,20.00
2018-06-17T15:23:46.924Z,20.00
2018-06-17T15:26:15.365Z,19.90
2018-06-17T15:28:43.805Z,19.40
2018-06-17T15:31:17.471Z,19.30
2018-06-17T15:33:51.411Z,19.20
2018-06-17T15:36:25.169Z,19.20
2018-06-17T15:38:56.404Z,19.30
2018-06-17T15:41:27.338Z,19.00
2018-06-17T15:43:57.297Z,19.10
2018-06-17T15:46:26.416Z,19.30
2018-06-17T15:48:54.996Z,19.50
2018-06-17T15:51:23.455Z,19.60
2018-06-17T15:53:51.898Z,19.30
2018-06-17T15:58:48.595Z,19.30
2018-06-17T16:01:17.655Z,19.50
2018-06-17T16:03:46.108Z,19.60
2018-06-17T16:06:14.572Z,19.70
2018-06-17T16:08:43.024Z,19.70
2018-06-17T16:11:11.790Z,19.80
2018-06-17T16:13:45.440Z,19.80
2018-06-17T16:16:19.333Z,19.70
2018-06-17T16:18:53.169Z,19.60
2018-06-17T16:21:21.761Z,19.70
2018-06-17T16:23:50.252Z,19.50
2018-06-17T16:26:18.752Z,19.60
2018-06-17T16:28:47.209Z,19.60
2018-06-17T16:31:15.694Z,19.40
2018-06-17T16:33:44.268Z,19.50
2018-06-17T16:36:12.733Z,19.50
2018-06-17T16:38:41.208Z,19.50
2018-06-17T16:41:09.747Z,19.40
2018-06-17T16:43:38.200Z,19.40
2018-06-17T16:46:06.708Z,19.30
2018-06-17T16:48:35.152Z,19.50
2018-06-17T16:51:08.837Z,19.60
2018-06-17T16:53:43.535Z,19.60
2018-06-17T16:56:17.658Z,19.50
2018-06-17T16:58:51.628Z,19.50
2018-06-17T17:01:20.132Z,19.70
2018-06-17T17:03:48.596Z,19.70
2018-06-17T17:06:17.166Z,19.50
2018-06-17T17:08:45.687Z,19.50
2018-06-17T17:11:14.290Z,19.50
2018-06-17T17:13:42.741Z,19.50
2018-06-17T17:16:11.234Z,19.40
2018-06-17T17:18:39.772Z,19.30
2018-06-17T17:21:08.339Z,19.20
2018-06-17T17:23:36.809Z,19.20
2018-06-17T17:26:05.633Z,19.20
2018-06-17T17:28:34.097Z,19.20
2018-06-17T17:31:02.632Z,19.20
2018-06-17T17:33:36.387Z,19.20
2018-06-17T17:36:10.276Z,19.20
2018-06-17T17:41:12.324Z,19.20
2018-06-17T17:43:40.774Z,19.10
2018-06-17T17:46:14.502Z,19.10
2018-06-17T17:48:42.933Z,19.10
2018-06-17T17:51:11.609Z,19.00
2018-06-17T17:53:40.339Z,19.00
2018-06-17T17:56:10.041Z,19.00
2018-06-17T17:58:38.956Z,19.00
2018-06-17T18:03:42.511Z,18.90
2018-06-17T18:06:12.189Z,18.90
2018-06-17T18:08:41.659Z,18.90
2018-06-17T18:11:10.774Z,18.80
2018-06-17T18:13:40.773Z,18.70
2018-06-17T18:16:10.692Z,18.70
2018-06-17T18:18:40.586Z,18.80
2018-06-17T18:21:09.739Z,18.90
2018-06-17T18:23:39.425Z,18.80
2018-06-17T18:28:47.215Z,18.90
2018-06-17T18:31:15.666Z,18.90
2018-06-17T18:33:49.551Z,19.10
2018-06-17T18:38:47.839Z,19.00
2018-06-17T18:41:16.888Z,19.00
2018-06-17T18:43:45.401Z,18.90
2018-06-17T18:46:15.657Z,18.80
2018-06-17T18:48:44.549Z,18.70
2018-06-17T18:51:13.010Z,18.60
2018-06-17T18:56:17.634Z,18.40
2018-06-17T18:58:46.174Z,18.30
2018-06-17T19:01:14.691Z,18.20
2018-06-17T19:03:43.235Z,18.00
2018-06-17T19:06:12.036Z,17.90
2018-06-17T19:08:47.231Z,17.80
2018-06-17T19:11:21.204Z,17.70
2018-06-17T19:13:54.987Z,17.60
2018-06-17T19:16:28.722Z,17.50
2018-06-17T19:18:57.200Z,17.50
2018-06-17T19:21:25.788Z,17.40
2018-06-17T19:23:54.301Z,17.40
2018-06-17T19:26:22.836Z,17.30
2018-06-17T19:28:51.287Z,17.20
2018-06-17T19:31:19.962Z,17.20
2018-06-17T19:33:48.540Z,17.20
2018-06-17T19:36:17.347Z,17.10
2018-06-17T19:38:45.838Z,17.10
2018-06-17T19:41:14.437Z,17.10
2018-06-17T19:43:42.924Z,17.10
2018-06-17T19:46:11.396Z,17.00
2018-06-17T19:48:39.846Z,17.10
2018-06-17T19:51:13.575Z,17.10
2018-06-17T19:53:47.395Z,17.10
2018-06-17T19:56:21.213Z,17.10
2018-06-17T20:01:23.256Z,17.10
2018-06-17T20:03:51.855Z,17.10
2018-06-17T20:06:20.459Z,17.10
2018-06-17T20:08:48.961Z,17.10
2018-06-17T20:11:17.441Z,17.10
2018-06-17T20:13:45.976Z,17.10
2018-06-17T20:16:14.476Z,17.10
2018-06-17T20:21:11.083Z,17.10
2018-06-17T20:23:39.566Z,17.00
2018-06-17T20:26:07.966Z,17.10
2018-06-17T20:28:36.464Z,17.00
2018-06-17T20:31:05.022Z,17.10
2018-06-17T20:33:38.928Z,17.10
2018-06-17T20:36:12.853Z,17.00
2018-06-17T20:38:46.685Z,17.00
2018-06-17T20:41:20.790Z,16.90
2018-06-17T20:43:51.951Z,16.90
2018-06-17T20:46:20.469Z,16.90
2018-06-17T20:48:49.738Z,16.90
2018-06-17T20:51:19.354Z,16.90
2018-06-17T20:53:48.161Z,16.90
2018-06-17T20:56:16.882Z,16.90
2018-06-17T20:58:45.518Z,16.90
2018-06-17T21:01:13.949Z,16.90
2018-06-17T21:03:42.449Z,16.90
2018-06-17T21:06:11.039Z,16.90
2018-06-17T21:08:40.828Z,16.90
2018-06-17T21:11:09.308Z,16.90
2018-06-17T21:13:38.097Z,16.90
2018-06-17T21:16:07.096Z,16.80
2018-06-17T21:18:40.986Z,16.80
2018-06-17T21:21:14.936Z,16.80
2018-06-17T21:23:48.925Z,16.90
2018-06-17T21:26:22.872Z,16.90
2018-06-17T21:28:51.307Z,16.90
2018-06-17T21:31:19.785Z,16.90
2018-06-17T21:33:48.733Z,16.90
2018-06-17T21:36:17.442Z,16.80
2018-06-17T21:38:46.213Z,16.70
2018-06-17T21:41:14.664Z,16.80
2018-06-17T21:43:43.225Z,16.80
2018-06-17T21:46:11.698Z,16.80
2018-06-17T21:48:40.133Z,16.80
2018-06-17T21:51:08.584Z,16.80
2018-06-17T21:53:37.040Z,16.80
2018-06-17T21:56:05.780Z,16.80
2018-06-17T22:01:08.018Z,16.80
2018-06-17T22:03:36.452Z,16.80
2018-06-17T22:06:04.976Z,16.70
2018-06-17T22:08:38.908Z,16.70
2018-06-17T22:11:12.733Z,16.70
2018-06-17T22:13:46.519Z,16.70
2018-06-17T22:16:20.443Z,16.60
2018-06-17T22:18:48.886Z,16.60
2018-06-17T22:21:17.381Z,16.60
2018-06-17T22:23:45.981Z,16.60
2018-06-17T22:26:14.574Z,16.60
2018-06-17T22:28:42.990Z,16.60
2018-06-17T22:31:11.488Z,16.60
2018-06-17T22:33:39.949Z,16.60
2018-06-17T22:36:08.579Z,16.60
2018-06-17T22:38:37.109Z,16.50
2018-06-17T22:41:05.710Z,16.50
2018-06-17T22:43:34.351Z,16.50
2018-06-17T22:46:02.832Z,16.50
2018-06-17T22:48:31.309Z,16.50
2018-06-17T22:50:59.835Z,16.50
2018-06-17T22:53:39.740Z,16.40
2018-06-17T22:57:11.632Z,16.40
2018-06-17T22:59:45.388Z,16.40
2018-06-17T23:02:19.245Z,16.40
2018-06-17T23:04:52.991Z,16.40
2018-06-17T23:07:26.798Z,16.40
2018-06-17T23:09:55.504Z,16.40
2018-06-17T23:12:23.951Z,16.40
2018-06-17T23:14:52.381Z,16.40
2018-06-17T23:17:21.155Z,16.40
2018-06-17T23:19:49.659Z,16.30
2018-06-17T23:22:18.072Z,16.30
2018-06-17T23:24:46.562Z,16.30
2018-06-17T23:27:15.093Z,16.30
2018-06-17T23:29:43.516Z,16.30
2018-06-17T23:32:12.011Z,16.30
2018-06-17T23:34:40.425Z,16.30
2018-06-17T23:37:08.912Z,16.30
2018-06-17T23:39:37.368Z,16.30
2018-06-17T23:42:05.968Z,16.30
2018-06-17T23:44:34.520Z,16.30
2018-06-17T23:47:08.142Z,16.20
2018-06-17T23:49:41.985Z,16.30
2018-06-17T23:52:15.720Z,16.20
2018-06-17T23:54:49.528Z,16.20
2018-06-17T23:57:17.979Z,16.20
2018-06-17T23:59:46.473Z,16.20
